createdAt,value
2017-01-19T00:00:18.900Z,0
2017-01-19T00:01:18.962Z,0
2017-01-19T00:02:19.534Z,0
2017-01-19T00:03:20.697Z,0
2017-01-19T00:04:19.916Z,0
2017-01-19T00:05:18.837Z,0
2017-01-19T00:06:19.483Z,0
2017-01-19T00:07:19.681Z,0
2017-01-19T00:08:19.359Z,0
2017-01-19T00:09:18.835Z,0
2017-01-19T00:10:19.680Z,0
2017-01-19T00:11:20.134Z,0
2017-01-19T00:12:19.692Z,0
2017-01-19T00:13:19.773Z,0
2017-01-19T00:14:19.780Z,0
2017-01-19T00:15:18.708Z,0
2017-01-19T00:16:18.931Z,0
2017-01-19T00:17:19.967Z,0
2017-01-19T00:18:19.425Z,0
2017-01-19T00:19:19.221Z,0
2017-01-19T00:20:19.029Z,0
2017-01-19T00:21:19.104Z,0
2017-01-19T00:22:18.909Z,0
2017-01-19T00:23:20.124Z,0
2017-01-19T00:24:19.287Z,0
2017-01-19T00:25:20.279Z,0
2017-01-19T00:26:18.827Z,0
2017-01-19T00:27:19.915Z,0
2017-01-19T00:28:20.222Z,0
2017-01-19T00:29:19.351Z,0
2017-01-19T00:30:20.574Z,0
2017-01-19T00:31:20.342Z,0
2017-01-19T00:32:19.698Z,0
2017-01-19T00:33:19.191Z,0
2017-01-19T00:34:19.708Z,0
2017-01-19T00:35:19.671Z,0
2017-01-19T00:36:19.481Z,0
2017-01-19T00:37:20.113Z,0
2017-01-19T00:38:19.705Z,0
2017-01-19T00:39:19.480Z,0
2017-01-19T00:40:19.454Z,0
2017-01-19T00:41:20.565Z,0
2017-01-19T00:42:19.132Z,0
2017-01-19T00:43:19.743Z,0
2017-01-19T00:44:19.623Z,0
2017-01-19T00:45:19.243Z,0
2017-01-19T00:46:19.382Z,0
2017-01-19T00:47:19.338Z,0
2017-01-19T00:48:20.239Z,0
2017-01-19T00:49:20.625Z,0
2017-01-19T00:50:21.313Z,0
2017-01-19T00:51:19.549Z,0
2017-01-19T00:52:20.561Z,0
2017-01-19T00:53:19.889Z,0
2017-01-19T00:54:20.739Z,0
2017-01-19T00:55:19.891Z,0
2017-01-19T00:56:19.519Z,0
2017-01-19T00:57:18.934Z,0
2017-01-19T00:58:19.375Z,0
2017-01-19T00:59:19.814Z,0
2017-01-19T01:00:20.586Z,0
2017-01-19T01:01:19.350Z,0
2017-01-19T01:02:19.968Z,0
2017-01-19T01:03:19.398Z,0
2017-01-19T01:04:19.426Z,0
2017-01-19T01:05:19.422Z,0
2017-01-19T01:06:20.196Z,0
2017-01-19T01:07:19.429Z,0
2017-01-19T01:08:19.833Z,0
2017-01-19T01:09:21.658Z,0
2017-01-19T01:10:19.765Z,0
2017-01-19T01:11:20.208Z,0
2017-01-19T01:12:20.397Z,0
2017-01-19T01:13:20.869Z,0
2017-01-19T01:14:20.033Z,0
2017-01-19T01:15:19.478Z,0
2017-01-19T01:16:19.748Z,0
2017-01-19T01:17:19.725Z,0
2017-01-19T01:18:20.248Z,0
2017-01-19T01:19:20.257Z,0
2017-01-19T01:20:19.957Z,0
2017-01-19T01:21:20.680Z,0
2017-01-19T01:22:20.307Z,0
2017-01-19T01:23:20.975Z,0
2017-01-19T01:24:19.437Z,0
2017-01-19T01:25:19.708Z,0
2017-01-19T01:26:21.944Z,0
2017-01-19T01:27:19.725Z,0
2017-01-19T01:28:20.192Z,0
2017-01-19T01:29:19.804Z,0
2017-01-19T01:30:20.501Z,0
2017-01-19T01:31:19.599Z,0
2017-01-19T01:32:19.844Z,0
2017-01-19T01:33:19.965Z,0
2017-01-19T01:34:19.674Z,0
2017-01-19T01:35:20.171Z,0
2017-01-19T01:36:19.938Z,0
2017-01-19T01:37:20.966Z,0
2017-01-19T01:38:20.868Z,0
2017-01-19T01:39:20.774Z,0
2017-01-19T01:40:21.317Z,0
2017-01-19T01:41:20.966Z,0
2017-01-19T01:42:21.532Z,0
2017-01-19T01:43:20.610Z,0
2017-01-19T01:44:20.953Z,0
2017-01-19T01:45:20.402Z,0
2017-01-19T01:46:20.403Z,0
2017-01-19T01:47:20.439Z,0
2017-01-19T01:48:20.326Z,0
2017-01-19T01:49:20.974Z,0
2017-01-19T01:50:20.265Z,0
2017-01-19T01:51:20.305Z,0
2017-01-19T01:52:21.716Z,0
2017-01-19T01:53:19.918Z,0
2017-01-19T01:54:20.872Z,0
2017-01-19T01:55:19.959Z,0
2017-01-19T01:56:20.837Z,0
2017-01-19T01:57:20.817Z,0
2017-01-19T01:58:20.496Z,0
2017-01-19T01:59:20.510Z,0
2017-01-19T02:00:20.237Z,0
2017-01-19T02:01:20.657Z,0
2017-01-19T02:02:19.731Z,0
2017-01-19T02:03:21.302Z,0
2017-01-19T02:04:20.550Z,0
2017-01-19T02:05:21.363Z,0
2017-01-19T02:06:21.365Z,0
2017-01-19T02:07:20.119Z,0
2017-01-19T02:08:21.287Z,0
2017-01-19T02:09:22.136Z,0
2017-01-19T02:10:21.310Z,0
2017-01-19T02:11:20.266Z,0
2017-01-19T02:12:20.147Z,0
2017-01-19T02:13:20.935Z,0
2017-01-19T02:14:20.873Z,0
2017-01-19T02:15:20.511Z,0
2017-01-19T02:16:20.635Z,0
2017-01-19T02:17:20.994Z,0
2017-01-19T02:18:21.021Z,0
2017-01-19T02:19:21.591Z,0
2017-01-19T02:20:20.238Z,0
2017-01-19T02:21:20.563Z,0
2017-01-19T02:22:21.777Z,0
2017-01-19T02:23:20.137Z,0
2017-01-19T02:24:21.170Z,0
2017-01-19T02:25:21.138Z,0
2017-01-19T02:26:20.679Z,0
2017-01-19T02:27:21.175Z,0
2017-01-19T02:28:21.493Z,0
2017-01-19T02:29:21.613Z,0
2017-01-19T02:30:21.090Z,0
2017-01-19T02:31:21.657Z,0
2017-01-19T02:32:21.320Z,0
2017-01-19T02:33:21.067Z,0
2017-01-19T02:34:20.422Z,0
2017-01-19T02:35:21.187Z,0
2017-01-19T02:36:20.998Z,0
2017-01-19T02:37:21.553Z,0
2017-01-19T02:38:21.395Z,0
2017-01-19T02:39:21.183Z,0
2017-01-19T02:40:20.985Z,0
2017-01-19T02:41:21.380Z,0
2017-01-19T02:42:20.903Z,0
2017-01-19T02:43:20.778Z,0
2017-01-19T02:44:21.309Z,0
2017-01-19T02:45:20.973Z,0
2017-01-19T02:46:21.200Z,0
2017-01-19T02:47:22.080Z,0
2017-01-19T02:48:20.426Z,0
2017-01-19T02:49:21.294Z,0
2017-01-19T02:50:21.514Z,0
2017-01-19T02:51:20.744Z,0
2017-01-19T02:52:21.188Z,0
2017-01-19T02:53:20.710Z,0
2017-01-19T02:54:20.794Z,0
2017-01-19T02:55:20.643Z,0
2017-01-19T02:56:20.885Z,0
2017-01-19T02:57:22.216Z,0
2017-01-19T02:58:21.269Z,0
2017-01-19T02:59:21.361Z,0
2017-01-19T03:00:22.020Z,0
2017-01-19T03:01:21.166Z,0
2017-01-19T03:02:20.196Z,0
2017-01-19T03:03:20.821Z,0
2017-01-19T03:04:21.673Z,0
2017-01-19T03:05:20.769Z,0
2017-01-19T03:06:20.927Z,0
2017-01-19T03:07:20.622Z,0
2017-01-19T03:08:21.137Z,0
2017-01-19T03:09:20.668Z,0
2017-01-19T03:10:22.268Z,0
2017-01-19T03:11:21.133Z,0
2017-01-19T03:12:21.582Z,0
2017-01-19T03:13:20.897Z,0
2017-01-19T03:14:21.063Z,0
2017-01-19T03:15:21.598Z,0
2017-01-19T03:16:20.808Z,0
2017-01-19T03:17:22.582Z,0
2017-01-19T03:18:21.848Z,0
2017-01-19T03:19:20.647Z,0
2017-01-19T03:20:21.641Z,0
2017-01-19T03:21:21.583Z,0
2017-01-19T03:22:21.239Z,0
2017-01-19T03:23:21.204Z,0
2017-01-19T03:24:21.882Z,0
2017-01-19T03:25:21.696Z,0
2017-01-19T03:26:21.508Z,0
2017-01-19T03:27:21.308Z,0
2017-01-19T03:28:21.138Z,0
2017-01-19T03:29:20.631Z,0
2017-01-19T03:30:21.421Z,0
2017-01-19T03:31:21.105Z,0
2017-01-19T03:32:21.185Z,0
2017-01-19T03:33:20.943Z,0
2017-01-19T03:34:21.707Z,0
2017-01-19T03:35:21.373Z,0
2017-01-19T03:36:21.614Z,0
2017-01-19T03:37:20.940Z,0
2017-01-19T03:38:21.491Z,0
2017-01-19T03:39:21.543Z,0
2017-01-19T03:40:22.572Z,0
2017-01-19T03:41:20.911Z,0
2017-01-19T03:42:21.829Z,0
2017-01-19T03:43:21.197Z,0
2017-01-19T03:44:21.655Z,0
2017-01-19T03:45:27.247Z,0
2017-01-19T03:46:20.889Z,0
2017-01-19T03:47:21.706Z,0
2017-01-19T03:48:21.548Z,0
2017-01-19T03:49:21.912Z,0
2017-01-19T03:50:21.589Z,0
2017-01-19T03:51:21.661Z,0
2017-01-19T03:52:21.049Z,0
2017-01-19T03:53:21.552Z,0
2017-01-19T03:54:22.738Z,0
2017-01-19T03:55:21.988Z,0
2017-01-19T03:56:21.428Z,0
2017-01-19T03:57:21.998Z,0
2017-01-19T03:58:21.832Z,0
2017-01-19T03:59:23.354Z,0
2017-01-19T04:00:21.645Z,0
2017-01-19T04:01:21.103Z,0
2017-01-19T04:02:22.150Z,0
2017-01-19T04:03:22.238Z,0
2017-01-19T04:04:21.687Z,0
2017-01-19T04:05:21.626Z,0
2017-01-19T04:06:21.028Z,0
2017-01-19T04:07:22.199Z,0
2017-01-19T04:08:21.694Z,0
2017-01-19T04:09:21.479Z,0
2017-01-19T04:10:20.970Z,0
2017-01-19T04:11:21.974Z,0
2017-01-19T04:12:21.284Z,0
2017-01-19T04:13:20.812Z,0
2017-01-19T04:14:21.041Z,0
2017-01-19T04:15:22.294Z,0
2017-01-19T04:16:22.274Z,0
2017-01-19T04:17:21.739Z,0
2017-01-19T04:18:21.926Z,0
2017-01-19T04:19:22.561Z,0
2017-01-19T04:20:21.403Z,0
2017-01-19T04:21:21.926Z,0
2017-01-19T04:22:21.514Z,0
2017-01-19T04:23:20.918Z,0
2017-01-19T04:24:21.264Z,0
2017-01-19T04:25:22.244Z,0
2017-01-19T04:26:22.741Z,0
2017-01-19T04:27:20.890Z,0
2017-01-19T04:28:21.334Z,0
2017-01-19T04:29:22.025Z,0
2017-01-19T04:30:21.447Z,0
2017-01-19T04:31:21.258Z,0
2017-01-19T04:32:21.405Z,0
2017-01-19T04:33:21.121Z,0
2017-01-19T04:34:21.910Z,0
2017-01-19T04:35:22.492Z,0
2017-01-19T04:36:21.819Z,0
2017-01-19T04:37:23.711Z,0
2017-01-19T04:38:21.555Z,0
2017-01-19T04:39:21.513Z,0
2017-01-19T04:40:21.912Z,0
2017-01-19T04:41:21.524Z,0
2017-01-19T04:42:22.928Z,0
2017-01-19T04:43:21.234Z,0
2017-01-19T04:44:22.187Z,0
2017-01-19T04:45:21.839Z,0
2017-01-19T04:46:21.824Z,0
2017-01-19T04:47:22.095Z,0
2017-01-19T04:48:22.261Z,0
2017-01-19T04:49:21.754Z,0
2017-01-19T04:50:21.938Z,0
2017-01-19T04:51:22.741Z,0
2017-01-19T04:52:22.747Z,0
2017-01-19T04:53:22.457Z,0
2017-01-19T04:54:21.217Z,0
2017-01-19T04:55:21.668Z,0
2017-01-19T04:56:22.576Z,0
2017-01-19T04:57:22.689Z,0
2017-01-19T04:58:21.768Z,0
2017-01-19T04:59:22.543Z,0
2017-01-19T05:00:22.957Z,0
2017-01-19T05:01:21.754Z,0
2017-01-19T05:02:22.307Z,0
2017-01-19T05:03:23.940Z,0
2017-01-19T05:04:22.738Z,0
2017-01-19T05:05:22.761Z,0
2017-01-19T05:06:23.414Z,0
2017-01-19T05:07:21.348Z,0
2017-01-19T05:08:21.049Z,0
2017-01-19T05:09:21.584Z,0
2017-01-19T05:10:22.784Z,0
2017-01-19T05:11:22.171Z,0
2017-01-19T05:12:21.720Z,0
2017-01-19T05:13:22.963Z,0
2017-01-19T05:14:21.400Z,0
2017-01-19T05:15:22.283Z,0
2017-01-19T05:16:22.507Z,0
2017-01-19T05:17:22.348Z,0
2017-01-19T05:18:23.697Z,0
2017-01-19T05:19:23.092Z,0
2017-01-19T05:20:22.008Z,0
2017-01-19T05:21:22.419Z,0
2017-01-19T05:22:22.685Z,0
2017-01-19T05:23:22.422Z,0
2017-01-19T05:24:23.427Z,0
2017-01-19T05:25:22.618Z,0
2017-01-19T05:26:22.854Z,0
2017-01-19T05:27:22.031Z,0
2017-01-19T05:28:24.335Z,0
2017-01-19T05:29:23.026Z,0
2017-01-19T05:30:22.134Z,0
2017-01-19T05:31:22.672Z,0
2017-01-19T05:32:24.216Z,0
2017-01-19T05:33:22.563Z,0
2017-01-19T05:34:23.521Z,0
2017-01-19T05:35:23.552Z,0
2017-01-19T05:36:22.556Z,0
2017-01-19T05:37:23.725Z,0
2017-01-19T05:38:22.466Z,0
2017-01-19T05:39:22.607Z,0
2017-01-19T05:40:21.717Z,0
2017-01-19T05:41:23.482Z,0
2017-01-19T05:42:22.304Z,0
2017-01-19T05:43:23.483Z,0
2017-01-19T05:44:22.442Z,0
2017-01-19T05:45:23.308Z,0
2017-01-19T05:46:22.446Z,0
2017-01-19T05:47:23.743Z,0
2017-01-19T05:48:23.029Z,0
2017-01-19T05:49:23.672Z,0
2017-01-19T05:50:22.775Z,0
2017-01-19T05:51:23.364Z,0
2017-01-19T05:52:23.393Z,0
2017-01-19T05:53:23.093Z,0
2017-01-19T05:54:22.561Z,0
2017-01-19T05:55:22.205Z,0
2017-01-19T05:56:21.901Z,0
2017-01-19T05:57:23.272Z,0
2017-01-19T05:58:23.269Z,0
2017-01-19T05:59:23.480Z,0
2017-01-19T06:00:22.790Z,0
2017-01-19T06:01:23.464Z,0
2017-01-19T06:02:23.879Z,0
2017-01-19T06:03:24.441Z,0
2017-01-19T06:04:22.377Z,0
2017-01-19T06:05:22.778Z,0
2017-01-19T06:06:23.314Z,0
2017-01-19T06:07:22.780Z,0
2017-01-19T06:08:23.958Z,0
2017-01-19T06:09:22.952Z,0
2017-01-19T06:10:22.939Z,0
2017-01-19T06:11:23.473Z,0
2017-01-19T06:12:22.933Z,0
2017-01-19T06:13:23.546Z,0
2017-01-19T06:14:23.804Z,0
2017-01-19T06:15:23.025Z,0
2017-01-19T06:16:22.623Z,0
2017-01-19T06:17:22.706Z,0
2017-01-19T06:18:22.593Z,0
2017-01-19T06:19:22.743Z,0
2017-01-19T06:20:24.420Z,0
2017-01-19T06:21:23.004Z,0
2017-01-19T06:22:23.057Z,0
2017-01-19T06:23:22.505Z,0
2017-01-19T06:24:22.853Z,0
2017-01-19T06:25:23.919Z,0
2017-01-19T06:26:23.657Z,0
2017-01-19T06:27:22.459Z,0
2017-01-19T06:28:22.950Z,0
2017-01-19T06:29:22.100Z,0
2017-01-19T06:30:22.704Z,0
2017-01-19T06:31:22.667Z,0
2017-01-19T06:32:24.937Z,0
2017-01-19T06:33:22.808Z,0
2017-01-19T06:34:24.001Z,0
2017-01-19T06:35:22.483Z,0
2017-01-19T06:36:22.667Z,0
2017-01-19T06:37:24.277Z,0
2017-01-19T06:38:23.663Z,4
2017-01-19T06:39:22.664Z,0
2017-01-19T06:40:22.939Z,0
2017-01-19T06:41:22.436Z,4
2017-01-19T06:42:23.912Z,0
2017-01-19T06:43:23.226Z,4
2017-01-19T06:44:22.912Z,4
2017-01-19T06:45:22.744Z,4
2017-01-19T06:46:22.897Z,4
2017-01-19T06:47:23.481Z,8
2017-01-19T06:48:24.445Z,8
2017-01-19T06:49:22.760Z,8
2017-01-19T06:50:23.728Z,12
2017-01-19T06:51:23.765Z,12
2017-01-19T06:52:23.636Z,16
2017-01-19T06:53:23.637Z,16
2017-01-19T06:54:23.019Z,20
2017-01-19T06:55:23.085Z,24
2017-01-19T06:56:23.494Z,24
2017-01-19T06:57:22.640Z,32
2017-01-19T06:58:23.437Z,32
2017-01-19T06:59:23.320Z,40
2017-01-19T07:00:23.128Z,44
2017-01-19T07:01:22.578Z,52
2017-01-19T07:02:22.975Z,56
2017-01-19T07:03:22.937Z,68
2017-01-19T07:04:24.164Z,76
2017-01-19T07:05:23.591Z,84
2017-01-19T07:06:23.469Z,92
2017-01-19T07:07:22.694Z,108
2017-01-19T07:08:23.579Z,120
2017-01-19T07:09:22.843Z,132
2017-01-19T07:10:22.116Z,148
2017-01-19T07:11:22.646Z,164
2017-01-19T07:12:23.754Z,180
2017-01-19T07:13:22.613Z,196
2017-01-19T07:14:22.524Z,220
2017-01-19T07:15:23.293Z,240
2017-01-19T07:16:22.559Z,256
2017-01-19T07:17:23.031Z,280
2017-01-19T07:18:27.384Z,300
2017-01-19T07:19:25.456Z,332
2017-01-19T07:20:23.327Z,368
2017-01-19T07:21:23.244Z,404
2017-01-19T07:22:23.331Z,436
2017-01-19T07:23:23.228Z,464
2017-01-19T07:24:23.706Z,500
2017-01-19T07:25:23.128Z,536
2017-01-19T07:26:23.900Z,576
2017-01-19T07:27:24.528Z,628
2017-01-19T07:28:24.300Z,668
2017-01-19T07:29:22.934Z,688
2017-01-19T07:30:22.732Z,720
2017-01-19T07:31:24.006Z,764
2017-01-19T07:32:23.087Z,808
2017-01-19T07:33:23.335Z,844
2017-01-19T07:34:23.344Z,888
2017-01-19T07:35:24.040Z,928
2017-01-19T07:36:23.854Z,972
2017-01-19T07:37:25.431Z,1024
2017-01-19T07:38:23.952Z,1088
2017-01-19T07:39:24.166Z,1144
2017-01-19T07:40:23.612Z,1180
2017-01-19T07:41:23.171Z,1204
2017-01-19T07:42:24.593Z,1228
2017-01-19T07:43:22.978Z,1288
2017-01-19T07:44:23.554Z,1372
2017-01-19T07:45:22.830Z,1464
2017-01-19T07:46:24.339Z,1572
2017-01-19T07:47:23.480Z,1648
2017-01-19T07:48:23.822Z,1692
2017-01-19T07:49:23.194Z,1720
2017-01-19T07:50:23.760Z,1764
2017-01-19T07:51:24.028Z,1804
2017-01-19T07:52:22.917Z,1848
2017-01-19T07:53:22.505Z,1896
2017-01-19T07:54:23.418Z,1940
2017-01-19T07:55:23.852Z,1976
2017-01-19T07:56:24.001Z,2004
2017-01-19T07:57:23.338Z,2064
2017-01-19T07:58:24.573Z,2108
2017-01-19T07:59:24.290Z,2176
2017-01-19T08:00:23.593Z,2256
2017-01-19T08:01:24.142Z,2356
2017-01-19T08:02:24.880Z,2460
2017-01-19T08:03:23.424Z,2528
2017-01-19T08:04:23.929Z,2588
2017-01-19T08:05:23.260Z,2680
2017-01-19T08:06:23.854Z,2816
2017-01-19T08:07:23.531Z,2852
2017-01-19T08:08:23.512Z,2908
2017-01-19T08:09:23.815Z,2904
2017-01-19T08:10:23.248Z,2888
2017-01-19T08:11:24.511Z,2920
2017-01-19T08:12:23.983Z,2964
2017-01-19T08:13:23.180Z,3016
2017-01-19T08:14:23.919Z,2996
2017-01-19T08:15:24.028Z,3048
2017-01-19T08:16:23.189Z,3084
2017-01-19T08:17:23.967Z,3092
2017-01-19T08:18:24.577Z,3108
2017-01-19T08:19:23.289Z,3208
2017-01-19T08:20:23.509Z,3256
2017-01-19T08:21:23.140Z,3352
2017-01-19T08:22:23.879Z,3324
2017-01-19T08:23:23.432Z,3420
2017-01-19T08:24:23.307Z,3464
2017-01-19T08:25:24.066Z,3400
2017-01-19T08:26:24.431Z,3656
2017-01-19T08:27:24.629Z,3828
2017-01-19T08:28:23.971Z,3836
2017-01-19T08:29:24.644Z,3840
2017-01-19T08:30:23.664Z,3884
2017-01-19T08:31:23.223Z,4024
2017-01-19T08:32:23.811Z,4092
2017-01-19T08:33:24.212Z,4312
2017-01-19T08:34:24.243Z,4592
2017-01-19T08:35:23.661Z,4824
2017-01-19T08:36:25.141Z,5012
2017-01-19T08:37:25.540Z,5128
2017-01-19T08:38:24.332Z,5236
2017-01-19T08:39:23.954Z,5116
2017-01-19T08:40:24.462Z,5064
2017-01-19T08:41:23.511Z,5100
2017-01-19T08:42:24.668Z,5300
2017-01-19T08:43:24.729Z,5500
2017-01-19T08:44:23.564Z,5632
2017-01-19T08:45:23.714Z,5772
2017-01-19T08:46:25.527Z,5596
2017-01-19T08:47:24.030Z,5456
2017-01-19T08:48:23.512Z,5480
2017-01-19T08:49:24.256Z,5528
2017-01-19T08:50:24.906Z,5564
2017-01-19T08:51:25.313Z,5564
2017-01-19T08:52:24.828Z,5504
2017-01-19T08:53:24.145Z,5404
2017-01-19T08:54:23.956Z,5432
2017-01-19T08:55:23.979Z,5464
2017-01-19T08:56:23.569Z,5548
2017-01-19T08:57:24.575Z,5584
2017-01-19T08:58:24.690Z,5616
2017-01-19T08:59:24.112Z,5684
2017-01-19T09:00:23.849Z,5856
2017-01-19T09:01:23.518Z,6084
2017-01-19T09:02:24.055Z,6356
2017-01-19T09:03:24.522Z,6488
2017-01-19T09:04:24.407Z,6556
2017-01-19T09:05:24.025Z,6580
2017-01-19T09:06:24.419Z,6584
2017-01-19T09:07:24.159Z,6580
2017-01-19T09:08:24.997Z,6580
2017-01-19T09:09:24.586Z,6428
2017-01-19T09:10:23.879Z,6272
2017-01-19T09:11:24.398Z,6244
2017-01-19T09:12:26.083Z,6240
2017-01-19T09:13:23.998Z,6320
2017-01-19T09:14:24.318Z,6312
2017-01-19T09:15:24.455Z,6340
2017-01-19T09:16:24.348Z,6236
2017-01-19T09:17:25.294Z,6108
2017-01-19T09:18:24.463Z,6036
2017-01-19T09:19:24.852Z,5952
2017-01-19T09:20:24.597Z,5912
2017-01-19T09:21:24.266Z,5952
2017-01-19T09:22:24.394Z,6164
2017-01-19T09:23:25.177Z,6432
2017-01-19T09:24:24.072Z,6800
2017-01-19T09:25:25.417Z,7444
2017-01-19T09:26:23.878Z,7436
2017-01-19T09:27:24.998Z,7708
2017-01-19T09:28:25.066Z,8096
2017-01-19T09:29:24.584Z,8348
2017-01-19T09:30:25.251Z,8296
2017-01-19T09:31:25.083Z,8264
2017-01-19T09:32:24.506Z,8592
2017-01-19T09:33:23.980Z,9200
2017-01-19T09:34:24.959Z,9528
2017-01-19T09:35:24.737Z,9572
2017-01-19T09:36:24.559Z,9124
2017-01-19T09:37:24.514Z,10248
2017-01-19T09:38:24.822Z,10128
2017-01-19T09:39:24.049Z,10764
2017-01-19T09:40:24.616Z,11444
2017-01-19T09:41:24.680Z,11044
2017-01-19T09:42:24.926Z,10116
2017-01-19T09:43:24.288Z,10672
2017-01-19T09:44:24.781Z,10088
2017-01-19T09:45:25.403Z,9048
2017-01-19T09:46:24.651Z,7496
2017-01-19T09:47:24.771Z,8556
2017-01-19T09:48:24.561Z,7448
2017-01-19T09:49:24.239Z,7280
2017-01-19T09:50:24.559Z,8384
2017-01-19T09:51:25.023Z,7192
2017-01-19T09:52:25.130Z,7352
2017-01-19T09:53:25.805Z,6548
2017-01-19T09:54:24.250Z,5512
2017-01-19T09:55:24.946Z,5572
2017-01-19T09:56:25.104Z,6732
2017-01-19T09:57:24.660Z,7344
2017-01-19T09:58:24.777Z,8368
2017-01-19T09:59:25.049Z,7512
2017-01-19T10:00:24.360Z,6504
2017-01-19T10:01:25.627Z,7072
2017-01-19T10:02:25.155Z,6336
2017-01-19T10:03:25.579Z,6320
2017-01-19T10:04:24.323Z,6244
2017-01-19T10:05:24.417Z,6420
2017-01-19T10:06:24.928Z,6676
2017-01-19T10:07:25.557Z,6252
2017-01-19T10:08:24.754Z,6356
2017-01-19T10:09:24.988Z,7480
2017-01-19T10:10:25.809Z,8116
2017-01-19T10:11:25.579Z,7452
2017-01-19T10:12:25.412Z,7860
2017-01-19T10:13:25.031Z,7592
2017-01-19T10:14:26.672Z,7432
2017-01-19T10:15:24.911Z,5816
2017-01-19T10:16:24.765Z,5268
2017-01-19T10:17:24.596Z,6608
2017-01-19T10:18:24.819Z,6876
2017-01-19T10:19:24.549Z,6092
2017-01-19T10:20:25.693Z,5504
2017-01-19T10:21:24.638Z,5048
2017-01-19T10:22:25.208Z,4976
2017-01-19T10:23:25.244Z,4772
2017-01-19T10:24:25.346Z,5060
2017-01-19T10:25:24.882Z,5664
2017-01-19T10:26:25.009Z,6536
2017-01-19T10:27:25.425Z,6388
2017-01-19T10:28:25.026Z,6748
2017-01-19T10:29:25.068Z,7340
2017-01-19T10:30:25.512Z,6844
2017-01-19T10:31:25.707Z,6752
2017-01-19T10:32:25.295Z,6300
2017-01-19T10:33:25.319Z,6644
2017-01-19T10:34:26.263Z,6248
2017-01-19T10:35:25.104Z,6580
2017-01-19T10:36:24.826Z,6124
2017-01-19T10:37:25.095Z,6340
2017-01-19T10:38:24.997Z,6572
2017-01-19T10:39:25.931Z,6572
2017-01-19T10:40:25.085Z,7152
2017-01-19T10:41:26.051Z,6732
2017-01-19T10:42:24.853Z,6876
2017-01-19T10:43:26.274Z,6688
2017-01-19T10:44:25.450Z,6464
2017-01-19T10:45:25.620Z,6556
2017-01-19T10:46:25.027Z,6556
2017-01-19T10:47:25.168Z,6576
2017-01-19T10:48:26.298Z,6676
2017-01-19T10:49:25.062Z,6864
2017-01-19T10:50:25.747Z,6960
2017-01-19T10:51:24.772Z,6960
2017-01-19T10:52:25.522Z,7008
2017-01-19T10:53:25.139Z,6976
2017-01-19T10:54:26.496Z,6928
2017-01-19T10:55:26.246Z,7216
2017-01-19T10:56:25.714Z,7760
2017-01-19T10:57:25.445Z,8328
2017-01-19T10:58:25.959Z,8688
2017-01-19T10:59:25.971Z,8920
2017-01-19T11:00:27.725Z,9012
2017-01-19T11:01:25.563Z,9172
2017-01-19T11:02:25.449Z,9156
2017-01-19T11:03:25.999Z,9132
2017-01-19T11:04:27.341Z,8804
2017-01-19T11:05:26.065Z,8428
2017-01-19T11:06:26.428Z,7968
2017-01-19T11:07:25.487Z,7484
2017-01-19T11:08:25.823Z,7056
2017-01-19T11:09:25.836Z,6660
2017-01-19T11:10:26.024Z,6268
2017-01-19T11:11:26.246Z,6084
2017-01-19T11:12:25.278Z,6036
2017-01-19T11:13:26.249Z,6064
2017-01-19T11:14:26.402Z,6012
2017-01-19T11:15:25.630Z,5904
2017-01-19T11:16:26.090Z,5852
2017-01-19T11:17:26.367Z,5768
2017-01-19T11:18:25.302Z,5792
2017-01-19T11:19:25.650Z,5748
2017-01-19T11:20:26.263Z,5732
2017-01-19T11:21:25.207Z,5716
2017-01-19T11:22:25.797Z,5700
2017-01-19T11:23:25.602Z,5624
2017-01-19T11:24:26.661Z,5600
2017-01-19T11:25:26.043Z,5548
2017-01-19T11:26:27.127Z,5516
2017-01-19T11:27:26.764Z,5512
2017-01-19T11:28:26.708Z,5444
2017-01-19T11:29:25.327Z,5440
2017-01-19T11:30:25.562Z,5432
2017-01-19T11:31:25.959Z,5400
2017-01-19T11:32:26.569Z,5376
2017-01-19T11:33:25.380Z,5364
2017-01-19T11:34:26.646Z,5392
2017-01-19T11:35:25.895Z,5396
2017-01-19T11:36:26.409Z,5376
2017-01-19T11:37:27.032Z,5328
2017-01-19T11:38:25.879Z,5332
2017-01-19T11:39:25.246Z,5324
2017-01-19T11:40:25.655Z,5312
2017-01-19T11:41:25.623Z,5296
2017-01-19T11:42:26.612Z,5296
2017-01-19T11:43:26.757Z,5304
2017-01-19T11:44:26.645Z,5280
2017-01-19T11:45:25.658Z,5268
2017-01-19T11:46:26.189Z,5228
2017-01-19T11:47:26.397Z,5204
2017-01-19T11:48:26.623Z,5224
2017-01-19T11:49:27.439Z,5208
2017-01-19T11:50:27.553Z,5184
2017-01-19T11:51:27.076Z,5184
2017-01-19T11:52:26.702Z,5184
2017-01-19T11:53:27.426Z,5176
2017-01-19T11:54:26.446Z,5172
2017-01-19T11:55:26.482Z,5180
2017-01-19T11:56:26.732Z,5180
2017-01-19T11:57:26.366Z,5164
2017-01-19T11:58:26.394Z,5152
2017-01-19T11:59:27.363Z,5144
2017-01-19T12:00:26.129Z,5136
2017-01-19T12:01:26.299Z,5136
2017-01-19T12:02:27.291Z,5128
2017-01-19T12:03:27.120Z,5124
2017-01-19T12:04:26.148Z,5128
2017-01-19T12:05:26.771Z,5112
2017-01-19T12:06:26.934Z,5116
2017-01-19T12:07:25.894Z,5144
2017-01-19T12:08:27.121Z,5136
2017-01-19T12:09:27.199Z,5128
2017-01-19T12:10:26.463Z,5112
2017-01-19T12:11:26.323Z,5104
2017-01-19T12:12:27.119Z,5100
2017-01-19T12:13:26.555Z,5120
2017-01-19T12:14:26.882Z,5144
2017-01-19T12:15:26.790Z,5152
2017-01-19T12:16:27.731Z,5148
2017-01-19T12:17:28.219Z,5128
2017-01-19T12:18:27.577Z,5116
2017-01-19T12:19:27.259Z,5120
2017-01-19T12:20:27.102Z,5120
2017-01-19T12:21:26.319Z,5124
2017-01-19T12:22:26.316Z,5164
2017-01-19T12:23:27.107Z,5192
2017-01-19T12:24:27.019Z,5168
2017-01-19T12:25:27.680Z,5080
2017-01-19T12:26:26.686Z,5028
2017-01-19T12:27:27.189Z,5000
2017-01-19T12:28:26.201Z,4988
2017-01-19T12:29:27.294Z,4972
2017-01-19T12:30:27.545Z,4960
2017-01-19T12:31:27.935Z,4956
2017-01-19T12:32:26.911Z,4936
2017-01-19T12:33:26.407Z,4908
2017-01-19T12:34:27.608Z,4876
2017-01-19T12:35:27.368Z,4864
2017-01-19T12:36:28.829Z,4840
2017-01-19T12:37:27.367Z,4840
2017-01-19T12:38:27.234Z,4832
2017-01-19T12:39:27.349Z,4808
2017-01-19T12:40:26.727Z,4792
2017-01-19T12:41:27.128Z,4784
2017-01-19T12:42:27.671Z,4776
2017-01-19T12:43:27.540Z,4768
2017-01-19T12:44:27.587Z,4764
2017-01-19T12:45:27.380Z,4764
2017-01-19T12:46:27.777Z,4756
2017-01-19T12:47:27.453Z,4756
2017-01-19T12:48:27.314Z,4756
2017-01-19T12:49:27.197Z,4756
2017-01-19T12:50:27.700Z,4748
2017-01-19T12:51:27.737Z,4728
2017-01-19T12:52:27.520Z,4716
2017-01-19T12:53:27.611Z,4716
2017-01-19T12:54:27.471Z,4716
2017-01-19T12:55:27.410Z,4724
2017-01-19T12:56:27.322Z,4724
2017-01-19T12:57:27.827Z,4708
2017-01-19T12:58:27.988Z,4696
2017-01-19T12:59:27.433Z,4676
2017-01-19T13:00:27.724Z,4668
2017-01-19T13:01:27.149Z,4660
2017-01-19T13:02:27.947Z,4656
2017-01-19T13:03:28.730Z,4640
2017-01-19T13:04:27.440Z,4628
2017-01-19T13:05:27.718Z,4616
2017-01-19T13:06:28.318Z,4584
2017-01-19T13:07:27.612Z,4564
2017-01-19T13:08:27.841Z,4548
2017-01-19T13:09:26.691Z,4540
2017-01-19T13:10:27.269Z,4524
2017-01-19T13:11:27.275Z,4504
2017-01-19T13:12:28.047Z,4484
2017-01-19T13:13:27.247Z,4464
2017-01-19T13:14:27.337Z,4452
2017-01-19T13:15:28.616Z,4424
2017-01-19T13:16:27.822Z,4404
2017-01-19T13:17:27.245Z,4400
2017-01-19T13:18:28.883Z,4396
2017-01-19T13:19:28.195Z,4384
2017-01-19T13:20:27.804Z,4368
2017-01-19T13:21:28.260Z,4352
2017-01-19T13:22:28.095Z,4324
2017-01-19T13:23:27.726Z,4300
2017-01-19T13:24:27.495Z,4288
2017-01-19T13:25:28.038Z,4272
2017-01-19T13:26:28.392Z,4264
2017-01-19T13:27:29.317Z,4248
2017-01-19T13:28:28.402Z,4236
2017-01-19T13:29:28.062Z,4224
2017-01-19T13:30:27.455Z,4204
2017-01-19T13:31:28.483Z,4192
2017-01-19T13:32:28.916Z,4180
2017-01-19T13:33:28.478Z,4172
2017-01-19T13:34:28.272Z,4156
2017-01-19T13:35:29.004Z,4148
2017-01-19T13:36:28.243Z,4132
2017-01-19T13:37:27.625Z,4116
2017-01-19T13:38:28.339Z,4104
2017-01-19T13:39:28.657Z,4092
2017-01-19T13:40:28.819Z,4072
2017-01-19T13:41:27.443Z,4052
2017-01-19T13:42:28.108Z,4048
2017-01-19T13:43:28.673Z,4036
2017-01-19T13:44:27.855Z,4008
2017-01-19T13:45:28.236Z,3992
2017-01-19T13:46:29.052Z,3984
2017-01-19T13:47:28.167Z,3968
2017-01-19T13:48:27.669Z,3952
2017-01-19T13:49:27.392Z,3936
2017-01-19T13:50:28.774Z,3900
2017-01-19T13:51:28.859Z,3888
2017-01-19T13:52:28.666Z,3868
2017-01-19T13:53:27.859Z,3844
2017-01-19T13:54:28.457Z,3820
2017-01-19T13:55:28.802Z,3808
2017-01-19T13:56:29.967Z,3788
2017-01-19T13:57:28.792Z,3772
2017-01-19T13:58:29.547Z,3756
2017-01-19T13:59:28.469Z,3740
2017-01-19T14:00:29.042Z,3724
2017-01-19T14:01:30.062Z,3716